createdAt,value
2022-08-20T00:00:27.832Z,100664.91
2022-08-20T00:02:29.404Z,100660.78
2022-08-20T00:04:30.925Z,100655.00
2022-08-20T00:06:34.158Z,100671.16
2022-08-20T00:08:37.051Z,100686.25
2022-08-20T00:10:41.398Z,100683.69
2022-08-20T00:12:45.976Z,100684.00
2022-08-20T00:14:47.580Z,100681.69
2022-08-20T00:16:49.149Z,100679.13
2022-08-20T00:18:50.902Z,100679.06
2022-08-20T00:20:54.224Z,100690.50
2022-08-20T00:22:57.857Z,100685.09
2022-08-20T00:24:59.556Z,100677.97
2022-08-20T00:27:01.105Z,100683.94
2022-08-20T00:29:02.661Z,100680.00
2022-08-20T00:31:06.355Z,100677.16
2022-08-20T00:33:11.505Z,100675.56
2022-08-20T00:35:15.076Z,100685.50
2022-08-20T00:37:16.629Z,100684.94
2022-08-20T00:39:19.560Z,100685.34
2022-08-20T00:41:23.677Z,100682.84
2022-08-20T00:43:37.497Z,100680.38
2022-08-20T00:45:39.014Z,100678.53
2022-08-20T00:47:41.685Z,100674.88
2022-08-20T00:49:52.762Z,100683.69
2022-08-20T00:51:58.846Z,100675.88
2022-08-20T00:54:05.599Z,100684.47
2022-08-20T00:56:11.177Z,100680.38
2022-08-20T00:58:12.827Z,100684.00
2022-08-20T01:00:18.925Z,100682.00
2022-08-20T01:02:23.496Z,100686.41
2022-08-20T01:04:25.938Z,100684.16
2022-08-20T01:06:27.476Z,100683.47
2022-08-20T01:08:29.065Z,100690.63
2022-08-20T01:10:36.516Z,100693.44
2022-08-20T01:12:41.838Z,100686.09
2022-08-20T01:14:45.160Z,100680.69
2022-08-20T01:16:48.858Z,100693.84
2022-08-20T01:18:51.759Z,100692.66
2022-08-20T01:20:58.131Z,100696.75
2022-08-20T01:23:07.419Z,100691.53
2022-08-20T01:25:16.457Z,100689.94
2022-08-20T01:27:20.049Z,100688.53
2022-08-20T01:29:25.279Z,100697.22
2022-08-20T01:31:29.998Z,100695.06
2022-08-20T01:33:32.114Z,100690.03
2022-08-20T01:35:36.997Z,100688.34
2022-08-20T01:37:38.594Z,100695.91
2022-08-20T01:39:40.310Z,100689.63
2022-08-20T01:41:52.258Z,100679.97
2022-08-20T01:43:55.729Z,100692.91
2022-08-20T01:45:57.339Z,100689.84
2022-08-20T01:47:58.869Z,100692.66
2022-08-20T01:50:05.930Z,100686.53
2022-08-20T01:52:10.475Z,100689.84
2022-08-20T01:54:12.144Z,100699.38
2022-08-20T01:56:17.592Z,100694.41
2022-08-20T01:58:19.103Z,100696.34
2022-08-20T02:00:23.718Z,100701.63
2022-08-20T02:02:26.001Z,100702.38
2022-08-20T02:04:27.551Z,100703.78
2022-08-20T02:06:31.195Z,100703.31
2022-08-20T02:08:32.725Z,100698.50
2022-08-20T02:10:34.673Z,100700.81
2022-08-20T02:12:36.194Z,100704.03
2022-08-20T02:14:41.510Z,100705.44
2022-08-20T02:16:49.750Z,100701.63
2022-08-20T02:18:58.578Z,100709.59
2022-08-20T02:21:00.264Z,100708.63
2022-08-20T02:23:01.866Z,100714.50
2022-08-20T02:25:05.669Z,100716.47
2022-08-20T02:27:07.195Z,100717.56
2022-08-20T02:29:10.937Z,100718.72
2022-08-20T02:31:12.491Z,100721.25
2022-08-20T02:33:18.690Z,100719.22
2022-08-20T02:35:20.682Z,100721.00
2022-08-20T02:37:22.217Z,100722.13
2022-08-20T02:39:23.718Z,100716.25
2022-08-20T02:41:25.274Z,100719.81
2022-08-20T02:43:26.858Z,100724.13
2022-08-20T02:45:30.414Z,100717.72
2022-08-20T02:47:32.384Z,100726.44
2022-08-20T02:49:35.270Z,100730.59
2022-08-20T02:51:36.852Z,100727.22
2022-08-20T02:53:40.985Z,100724.22
2022-08-20T02:55:43.532Z,100724.13
2022-08-20T02:57:45.132Z,100719.72
2022-08-20T02:59:46.752Z,100709.59
2022-08-20T03:01:48.287Z,100703.28
2022-08-20T03:04:01.779Z,100703.28
2022-08-20T03:06:05.247Z,100697.75
2022-08-20T03:08:08.774Z,100697.84
2022-08-20T03:10:11.270Z,100699.25
2022-08-20T03:12:12.824Z,100704.19
2022-08-20T03:14:14.445Z,100697.56
2022-08-20T03:16:15.986Z,100698.84
2022-08-20T03:18:18.765Z,100703.56
2022-08-20T03:20:23.781Z,100697.84
2022-08-20T03:22:26.979Z,100708.28
2022-08-20T03:24:28.583Z,100701.66
2022-08-20T03:26:30.180Z,100701.53
2022-08-20T03:28:32.037Z,100694.69
2022-08-20T03:30:33.848Z,100703.09
2022-08-20T03:32:36.311Z,100692.84
2022-08-20T03:34:37.815Z,100698.50
2022-08-20T03:36:39.410Z,100699.63
2022-08-20T03:38:42.255Z,100702.47
2022-08-20T03:40:44.512Z,100699.06
2022-08-20T03:42:46.055Z,100700.91
2022-08-20T03:44:47.598Z,100694.81
2022-08-20T03:47:00.116Z,100696.53
2022-08-20T03:49:01.829Z,100687.44
2022-08-20T03:51:03.508Z,100681.47
2022-08-20T03:53:05.030Z,100680.47
2022-08-20T03:55:10.720Z,100686.91
2022-08-20T03:57:14.350Z,100688.75
2022-08-20T03:59:15.903Z,100690.25
2022-08-20T04:01:45.335Z,100689.41
2022-08-20T04:03:39.131Z,100691.72
2022-08-20T04:05:41.890Z,100700.53
2022-08-20T04:07:43.706Z,100697.53
2022-08-20T04:09:45.240Z,100710.44
2022-08-20T04:11:48.177Z,100713.66
2022-08-20T04:13:49.737Z,100713.59
2022-08-20T04:15:51.501Z,100720.13
2022-08-20T04:17:53.229Z,100715.59
2022-08-20T04:19:54.777Z,100715.19
2022-08-20T04:21:56.354Z,100719.06
2022-08-20T04:23:58.211Z,100714.19
2022-08-20T04:25:59.863Z,100713.19
2022-08-20T04:28:05.543Z,100715.91
2022-08-20T04:30:10.500Z,100704.38
2022-08-20T04:32:12.255Z,100709.19
2022-08-20T04:34:13.957Z,100711.50
2022-08-20T04:36:15.527Z,100707.72
2022-08-20T04:38:19.081Z,100711.03
2022-08-20T04:40:20.596Z,100709.63
2022-08-20T04:42:22.117Z,100703.38
2022-08-20T04:44:25.031Z,100707.03
2022-08-20T04:46:27.342Z,100712.19
2022-08-20T04:48:29.227Z,100717.72
2022-08-20T04:50:31.436Z,100720.38
2022-08-20T04:52:32.983Z,100715.66
2022-08-20T04:54:34.495Z,100716.56
2022-08-20T04:56:36.102Z,100716.00
2022-08-20T04:58:39.942Z,100725.41
2022-08-20T05:00:46.228Z,100725.41
2022-08-20T05:02:47.775Z,100736.84
2022-08-20T05:04:49.478Z,100717.50
2022-08-20T05:06:51.013Z,100741.56
2022-08-20T05:08:53.049Z,100736.59
2022-08-20T05:10:56.024Z,100748.84
2022-08-20T05:13:01.413Z,100740.38
2022-08-20T05:15:04.162Z,100739.47
2022-08-20T05:17:07.132Z,100744.59
2022-08-20T05:19:11.161Z,100736.97
2022-08-20T05:21:13.147Z,100734.41
2022-08-20T05:23:19.324Z,100737.41
2022-08-20T05:25:20.831Z,100726.13
2022-08-20T05:27:24.629Z,100732.94
2022-08-20T05:29:26.686Z,100737.81
2022-08-20T05:31:32.115Z,100738.47
2022-08-20T05:33:37.371Z,100737.16
2022-08-20T05:35:39.754Z,100733.69
2022-08-20T05:37:41.255Z,100726.44
2022-08-20T05:39:43.051Z,100732.25
2022-08-20T05:41:44.758Z,100733.09
2022-08-20T05:43:46.261Z,100734.38
2022-08-20T05:45:56.549Z,100740.75
2022-08-20T05:47:58.351Z,100743.19
2022-08-20T05:50:03.576Z,100754.91
2022-08-20T05:52:05.293Z,100733.31
2022-08-20T05:54:07.057Z,100754.81
2022-08-20T05:56:08.585Z,100761.31
2022-08-20T05:58:17.846Z,100758.13
2022-08-20T06:00:20.545Z,100759.44
2022-08-20T06:02:22.084Z,100756.75
2022-08-20T06:04:24.743Z,100764.34
2022-08-20T06:06:44.345Z,100761.25
2022-08-20T06:08:47.982Z,100770.59
2022-08-20T06:10:52.126Z,100769.03
2022-08-20T06:12:53.627Z,100767.28
2022-08-20T06:14:55.170Z,100767.22
2022-08-20T06:17:10.466Z,100763.03
2022-08-20T06:19:14.918Z,100769.78
2022-08-20T06:21:27.946Z,100772.00
2022-08-20T06:23:43.678Z,100770.88
2022-08-20T06:25:55.509Z,100763.16
2022-08-20T06:27:57.150Z,100770.06
2022-08-20T06:29:58.935Z,100773.03
2022-08-20T06:32:00.498Z,100769.69
2022-08-20T06:34:02.063Z,100768.97
2022-08-20T06:36:07.320Z,100773.47
2022-08-20T06:38:11.278Z,100770.06
2022-08-20T06:40:14.853Z,100774.88
2022-08-20T06:42:20.770Z,100778.84
2022-08-20T06:44:22.685Z,100777.59
2022-08-20T06:46:24.229Z,100774.34
2022-08-20T06:48:25.797Z,100776.09
2022-08-20T06:50:30.600Z,100785.41
2022-08-20T06:52:52.073Z,100781.81
2022-08-20T06:54:54.963Z,100790.53
2022-08-20T06:56:57.107Z,100790.09
2022-08-20T06:58:58.977Z,100793.97
2022-08-20T07:01:08.709Z,100790.72
2022-08-20T07:03:12.400Z,100782.28
2022-08-20T07:05:14.051Z,100784.75
2022-08-20T07:07:17.101Z,100785.88
2022-08-20T07:09:19.004Z,100793.31
2022-08-20T07:11:27.351Z,100799.28
2022-08-20T07:13:30.096Z,100791.00
2022-08-20T07:15:32.118Z,100803.09
2022-08-20T07:17:33.724Z,100809.56
2022-08-20T07:19:36.551Z,100808.06
2022-08-20T07:21:38.048Z,100817.78
2022-08-20T07:23:39.572Z,100812.66
2022-08-20T07:25:43.386Z,100816.06
2022-08-20T07:27:46.986Z,100817.78
2022-08-20T07:29:48.787Z,100820.97
2022-08-20T07:31:50.394Z,100820.09
2022-08-20T07:33:51.961Z,100826.50
2022-08-20T07:35:54.786Z,100827.91
2022-08-20T07:37:56.454Z,100823.91
2022-08-20T07:39:58.007Z,100825.19
2022-08-20T07:41:59.620Z,100821.50
2022-08-20T07:44:03.241Z,100823.91
2022-08-20T07:46:05.668Z,100815.22
2022-08-20T07:48:10.118Z,100823.06
2022-08-20T07:50:14.476Z,100823.78
2022-08-20T07:52:16.009Z,100823.94
2022-08-20T07:54:17.546Z,100818.97
2022-08-20T07:56:21.708Z,100817.28
2022-08-20T07:58:23.296Z,100818.50
2022-08-20T08:00:32.968Z,100814.63
2022-08-20T08:02:35.302Z,100816.47
2022-08-20T08:04:36.824Z,100824.16
2022-08-20T08:06:38.477Z,100829.56
2022-08-20T08:08:40.978Z,100820.03
2022-08-20T08:10:43.706Z,100831.06
2022-08-20T08:12:48.576Z,100839.88
2022-08-20T08:14:56.062Z,100838.41
2022-08-20T08:17:03.124Z,100842.44
2022-08-20T08:19:08.952Z,100841.22
2022-08-20T08:21:12.635Z,100839.75
2022-08-20T08:23:24.538Z,100848.81
2022-08-20T08:25:33.964Z,100852.84
2022-08-20T08:27:35.516Z,100850.19
2022-08-20T08:29:37.571Z,100849.06
2022-08-20T08:31:39.119Z,100849.63
2022-08-20T08:33:42.433Z,100850.19
2022-08-20T08:35:43.963Z,100853.63
2022-08-20T08:37:45.471Z,100850.63
2022-08-20T08:39:47.244Z,100837.59
2022-08-20T08:41:50.396Z,100843.09
2022-08-20T08:43:54.590Z,100849.97
2022-08-20T08:46:00.533Z,100850.09
2022-08-20T08:48:02.169Z,100852.63
2022-08-20T08:50:15.657Z,100855.84
2022-08-20T08:52:20.652Z,100850.56
2022-08-20T08:54:25.471Z,100858.00
2022-08-20T08:56:29.282Z,100859.78
2022-08-20T08:58:30.824Z,100856.19
2022-08-20T09:00:34.406Z,100868.63
2022-08-20T09:02:59.885Z,100871.81
2022-08-20T09:05:15.593Z,100864.19
2022-08-20T09:07:18.447Z,100868.50
2022-08-20T09:09:22.872Z,100870.69
2022-08-20T09:11:25.368Z,100866.97
2022-08-20T09:13:26.959Z,100872.41
2022-08-20T09:15:28.461Z,100871.84
2022-08-20T09:17:30.555Z,100865.56
2022-08-20T09:19:34.019Z,100872.78
2022-08-20T09:21:35.589Z,100873.78
2022-08-20T09:23:39.197Z,100878.34
2022-08-20T09:25:40.728Z,100879.91
2022-08-20T09:27:42.888Z,100883.56
2022-08-20T09:29:45.755Z,100869.44
2022-08-20T09:31:49.937Z,100871.81
2022-08-20T09:33:53.506Z,100877.53
2022-08-20T09:35:55.126Z,100876.44
2022-08-20T09:37:56.730Z,100875.34
2022-08-20T09:40:00.239Z,100877.19
2022-08-20T09:42:09.397Z,100877.56
2022-08-20T09:44:10.926Z,100877.16
2022-08-20T09:46:12.514Z,100884.78
2022-08-20T09:48:14.085Z,100881.75
2022-08-20T09:50:16.186Z,100880.13
2022-08-20T09:52:22.289Z,100875.72
2022-08-20T09:54:23.939Z,100880.44
2022-08-20T09:56:32.557Z,100876.44
2022-08-20T09:58:38.492Z,100876.19
2022-08-20T10:00:40.528Z,100871.00
2022-08-20T10:02:42.452Z,100873.72
2022-08-20T10:04:44.199Z,100873.25
2022-08-20T10:06:46.006Z,100867.50
2022-08-20T10:08:48.290Z,100871.56
2022-08-20T10:10:49.787Z,100877.94
2022-08-20T10:12:54.911Z,100876.63
2022-08-20T10:14:56.815Z,100875.47
2022-08-20T10:17:00.282Z,100873.69
2022-08-20T10:19:02.370Z,100882.25
2022-08-20T10:21:09.283Z,100884.22
2022-08-20T10:23:11.290Z,100884.22
2022-08-20T10:25:13.030Z,100875.69
2022-08-20T10:27:15.182Z,100878.38
2022-08-20T10:29:18.199Z,100876.13
2022-08-20T10:31:19.804Z,100878.50
2022-08-20T10:33:21.349Z,100879.81
2022-08-20T10:35:23.277Z,100877.09
2022-08-20T10:37:25.956Z,100874.31
2022-08-20T10:39:27.472Z,100876.78
2022-08-20T10:41:36.111Z,100878.81
2022-08-20T10:43:40.177Z,100877.06
2022-08-20T10:45:43.045Z,100877.41
2022-08-20T10:47:44.877Z,100876.53
2022-08-20T10:49:46.703Z,100878.84
2022-08-20T10:51:48.234Z,100876.63
2022-08-20T10:53:50.524Z,100870.53
2022-08-20T10:55:54.964Z,100871.00
2022-08-20T10:57:57.251Z,100875.31
2022-08-20T11:00:00.226Z,100883.91
2022-08-20T11:02:03.271Z,100884.16
2022-08-20T11:04:04.874Z,100884.69
2022-08-20T11:06:06.916Z,100886.84
2022-08-20T11:08:08.569Z,100884.69
2022-08-20T11:10:13.840Z,100886.94
2022-08-20T11:12:17.202Z,100887.47
2022-08-20T11:14:18.756Z,100884.84
2022-08-20T11:16:20.324Z,100886.31
2022-08-20T11:18:25.647Z,100885.19
2022-08-20T11:20:27.631Z,100888.75
2022-08-20T11:22:29.153Z,100891.09
2022-08-20T11:24:30.670Z,100899.41
2022-08-20T11:26:32.269Z,100894.22
2022-08-20T11:28:33.863Z,100896.13
2022-08-20T11:30:36.682Z,100890.22
2022-08-20T11:32:38.340Z,100893.91
2022-08-20T11:34:41.201Z,100897.63
2022-08-20T11:36:43.570Z,100894.81
2022-08-20T11:38:45.124Z,100898.38
2022-08-20T11:40:47.196Z,100896.34
2022-08-20T11:43:13.136Z,100897.16
2022-08-20T11:45:11.088Z,100889.63
2022-08-20T11:47:22.168Z,100898.97
2022-08-20T11:49:23.776Z,100905.72
2022-08-20T11:51:29.455Z,100897.22
2022-08-20T11:53:30.969Z,100898.06
2022-08-20T11:55:33.691Z,100902.53
2022-08-20T11:57:41.092Z,100899.34
2022-08-20T11:59:42.572Z,100901.34
2022-08-20T12:01:46.517Z,100905.53
2022-08-20T12:04:04.315Z,100913.59
2022-08-20T12:06:06.323Z,100912.13
2022-08-20T12:08:09.429Z,100909.72
2022-08-20T12:10:11.444Z,100904.81
2022-08-20T12:12:13.927Z,100907.38
2022-08-20T12:14:15.547Z,100901.94
2022-08-20T12:16:17.494Z,100910.00
2022-08-20T12:18:19.052Z,100905.41
2022-08-20T12:20:20.764Z,100903.38
2022-08-20T12:22:24.360Z,100903.13
2022-08-20T12:24:27.939Z,100905.53
2022-08-20T12:26:29.429Z,100905.59
2022-08-20T12:28:31.312Z,100908.06
2022-08-20T12:30:33.391Z,100913.50
2022-08-20T12:32:35.162Z,100910.09
2022-08-20T12:34:38.767Z,100909.03
2022-08-20T12:36:40.274Z,100910.25
2022-08-20T12:38:41.771Z,100906.91
2022-08-20T12:40:47.009Z,100910.66
2022-08-20T12:42:51.160Z,100909.31
2022-08-20T12:44:52.661Z,100905.22
2022-08-20T12:47:06.247Z,100913.00
2022-08-20T12:49:07.798Z,100914.00
2022-08-20T12:51:09.296Z,100908.88
2022-08-20T12:53:12.511Z,100912.53
2022-08-20T12:55:16.364Z,100917.03
2022-08-20T12:57:25.596Z,100920.22
2022-08-20T12:59:27.617Z,100919.19
2022-08-20T13:01:29.252Z,100916.66
2022-08-20T13:03:32.169Z,100926.03
2022-08-20T13:05:35.398Z,100910.16
2022-08-20T13:07:40.666Z,100920.22
2022-08-20T13:09:42.552Z,100920.09
2022-08-20T13:11:44.544Z,100922.81
2022-08-20T13:13:47.785Z,100915.50
2022-08-20T13:15:50.168Z,100918.22
2022-08-20T13:17:52.453Z,100920.75
2022-08-20T13:19:54.022Z,100920.31
2022-08-20T13:21:55.751Z,100917.09
2022-08-20T13:23:57.314Z,100923.59
2022-08-20T13:25:58.861Z,100924.66
2022-08-20T13:28:03.141Z,100921.50
2022-08-20T13:30:08.644Z,100932.91
2022-08-20T13:32:10.187Z,100918.72
2022-08-20T13:34:11.806Z,100927.84
2022-08-20T13:36:13.810Z,100925.84
2022-08-20T13:38:15.296Z,100922.81
2022-08-20T13:40:19.218Z,100925.22
2022-08-20T13:42:21.234Z,100927.09
2022-08-20T13:44:22.770Z,100933.34
2022-08-20T13:46:35.692Z,100936.97
2022-08-20T13:48:37.627Z,100928.19
2022-08-20T13:50:41.221Z,100934.06
2022-08-20T13:52:43.443Z,100935.53
2022-08-20T13:54:45.022Z,100930.25
2022-08-20T13:56:46.737Z,100937.97
2022-08-20T13:58:48.468Z,100938.09
2022-08-20T14:00:50.372Z,100936.69
2022-08-20T14:02:53.482Z,100934.25
2022-08-20T14:04:55.202Z,100927.84
2022-08-20T14:06:56.751Z,100921.13
2022-08-20T14:08:58.259Z,100927.66
2022-08-20T14:11:00.092Z,100925.38
2022-08-20T14:13:01.902Z,100928.50
2022-08-20T14:15:04.575Z,100917.97
2022-08-20T14:17:17.797Z,100921.13
2022-08-20T14:19:20.651Z,100921.41
2022-08-20T14:21:24.781Z,100925.13
2022-08-20T14:23:26.341Z,100926.78
2022-08-20T14:25:31.077Z,100930.69
2022-08-20T14:27:33.611Z,100923.69
2022-08-20T14:29:37.225Z,100922.28
2022-08-20T14:31:38.762Z,100926.84
2022-08-20T14:33:44.419Z,100932.66
2022-08-20T14:35:47.612Z,100932.50
2022-08-20T14:37:52.434Z,100935.56
2022-08-20T14:39:55.994Z,100935.47
2022-08-20T14:41:57.533Z,100935.06
2022-08-20T14:43:59.062Z,100940.50
2022-08-20T14:46:00.599Z,100933.56
2022-08-20T14:48:06.289Z,100937.94
2022-08-20T14:50:11.694Z,100934.47
2022-08-20T14:52:17.886Z,100940.91
2022-08-20T14:54:19.389Z,100932.47
2022-08-20T14:56:20.907Z,100942.00
2022-08-20T14:58:25.382Z,100939.84
2022-08-20T15:00:30.520Z,100937.59
2022-08-20T15:02:32.092Z,100931.47
2022-08-20T15:04:33.894Z,100943.72
2022-08-20T15:06:35.516Z,100933.38
2022-08-20T15:08:41.662Z,100945.09
2022-08-20T15:10:43.199Z,100943.41
2022-08-20T15:12:44.716Z,100936.84
2022-08-20T15:14:48.011Z,100937.97
2022-08-20T15:16:50.575Z,100931.16
2022-08-20T15:18:52.124Z,100929.41
2022-08-20T15:21:03.747Z,100939.38
2022-08-20T15:23:11.845Z,100920.88
2022-08-20T15:25:16.723Z,100931.72
2022-08-20T15:27:23.034Z,100938.00
2022-08-20T15:29:24.673Z,100942.59
2022-08-20T15:31:26.250Z,100944.97
2022-08-20T15:33:27.847Z,100939.13
2022-08-20T15:35:29.517Z,100937.56
2022-08-20T15:37:31.200Z,100948.25
2022-08-20T15:39:32.764Z,100950.38
2022-08-20T15:41:35.637Z,100946.25
2022-08-20T15:43:37.198Z,100943.69
2022-08-20T15:45:38.747Z,100935.28
2022-08-20T15:47:50.531Z,100939.38
2022-08-20T15:49:55.698Z,100939.22
2022-08-20T15:51:57.430Z,100943.66
2022-08-20T15:54:02.976Z,100937.38
2022-08-20T15:56:14.554Z,100935.81
2022-08-20T15:58:30.242Z,100935.38
2022-08-20T16:00:40.399Z,100940.78
2022-08-20T16:03:18.908Z,100924.38
2022-08-20T16:05:27.472Z,100939.09
2022-08-20T16:07:37.448Z,100943.09
2022-08-20T16:09:53.428Z,100940.38
2022-08-20T16:12:07.466Z,100951.09
2022-08-20T16:14:15.826Z,100943.41
2022-08-20T16:16:25.608Z,100945.66
2022-08-20T16:18:30.733Z,100931.41
2022-08-20T16:20:35.958Z,100938.28
2022-08-20T16:22:44.087Z,100928.88
2022-08-20T16:24:45.777Z,100947.97
2022-08-20T16:27:01.385Z,100942.84
2022-08-20T16:29:08.706Z,100949.38
2022-08-20T16:31:18.620Z,100947.97
2022-08-20T16:33:28.302Z,100945.09
2022-08-20T16:35:33.468Z,100947.41
2022-08-20T16:37:42.568Z,100945.16
2022-08-20T16:39:52.051Z,100956.13
2022-08-20T16:41:55.929Z,100953.41
2022-08-20T16:44:03.728Z,100951.84
2022-08-20T16:46:14.850Z,100947.31
2022-08-20T16:48:17.977Z,100956.56
2022-08-20T16:50:23.307Z,100952.56
2022-08-20T16:52:26.966Z,100946.56
2022-08-20T16:54:30.956Z,100959.41
2022-08-20T16:56:35.805Z,100962.41
2022-08-20T16:58:37.473Z,100966.09
2022-08-20T17:00:44.939Z,100958.69
2022-08-20T17:02:52.063Z,100959.41
2022-08-20T17:05:00.927Z,100964.25
2022-08-20T17:07:02.816Z,100951.56
2022-08-20T17:09:11.643Z,100954.56
2022-08-20T17:11:16.663Z,100947.16
2022-08-20T17:13:23.781Z,100946.16
2022-08-20T17:15:32.549Z,100961.41
2022-08-20T17:17:36.737Z,100959.94
2022-08-20T17:19:40.524Z,100961.97
2022-08-20T17:21:44.188Z,100961.09
2022-08-20T17:23:56.196Z,100959.41
2022-08-20T17:26:01.345Z,100965.66
2022-08-20T17:28:13.262Z,100963.09
2022-08-20T17:30:24.887Z,100962.50
2022-08-20T17:32:28.734Z,100969.81
2022-08-20T17:34:33.217Z,100970.53
2022-08-20T17:36:34.952Z,100972.53
2022-08-20T17:38:49.819Z,100975.25
2022-08-20T17:40:51.465Z,100979.66
2022-08-20T17:42:55.950Z,100986.78
2022-08-20T17:45:05.209Z,100976.69
2022-08-20T17:47:12.814Z,100989.94
2022-08-20T17:49:18.715Z,100985.06
2022-08-20T17:51:23.968Z,100981.94
2022-08-20T17:53:29.416Z,100980.53
2022-08-20T17:55:35.202Z,100990.22
2022-08-20T17:57:40.302Z,100980.25
2022-08-20T18:00:01.136Z,100983.81
2022-08-20T18:02:04.294Z,100995.06
2022-08-20T18:04:05.976Z,101000.06
2022-08-20T18:06:12.844Z,101000.63
2022-08-20T18:08:30.916Z,101006.50
2022-08-20T18:10:41.065Z,100995.66
2022-08-20T18:12:49.180Z,101004.75
2022-08-20T18:14:59.818Z,101017.44
2022-08-20T18:17:13.620Z,101012.16
2022-08-20T18:19:31.534Z,101016.03
2022-08-20T18:22:06.246Z,101017.31
2022-08-20T18:24:12.204Z,101013.91
2022-08-20T18:26:21.802Z,101016.72
2022-08-20T18:28:33.164Z,101008.72
2022-08-20T18:30:48.461Z,101001.03
2022-08-20T18:33:00.796Z,101006.44
2022-08-20T18:35:13.083Z,101003.53
2022-08-20T18:37:26.690Z,101007.50
2022-08-20T18:39:31.233Z,101006.13
2022-08-20T18:41:37.227Z,101007.50
2022-08-20T18:43:40.484Z,101003.22
2022-08-20T18:45:42.412Z,101002.34
2022-08-20T18:47:46.302Z,101010.06
2022-08-20T18:49:59.608Z,101009.78
2022-08-20T18:52:11.817Z,101005.22
2022-08-20T18:54:23.817Z,101009.38
2022-08-20T18:56:42.555Z,101009.50
2022-08-20T18:58:52.244Z,101008.06
2022-08-20T19:00:53.762Z,101007.75
2022-08-20T19:02:57.753Z,101012.88
2022-08-20T19:05:03.030Z,101016.50
2022-08-20T19:07:06.097Z,101017.63
2022-08-20T19:09:13.838Z,101021.53
2022-08-20T19:11:45.154Z,101020.97
2022-08-20T19:14:03.585Z,101021.44
2022-08-20T19:16:09.990Z,101027.94
2022-08-20T19:18:15.940Z,101023.69
2022-08-20T19:20:20.523Z,101029.16
2022-08-20T19:22:22.039Z,101026.00
2022-08-20T19:24:27.097Z,101021.59
2022-08-20T19:26:31.340Z,101031.13
2022-08-20T19:28:48.673Z,101020.59
2022-08-20T19:30:52.311Z,101020.59
2022-08-20T19:32:53.985Z,101016.91
2022-08-20T19:34:57.712Z,101010.78
2022-08-20T19:37:02.169Z,101013.31
2022-08-20T19:39:25.877Z,101007.47
2022-08-20T19:41:33.275Z,101014.59
2022-08-20T19:43:42.956Z,101017.13
2022-08-20T19:45:47.157Z,101006.56
2022-08-20T19:47:57.207Z,101018.69
2022-08-20T19:50:17.215Z,101027.13
2022-08-20T19:52:32.121Z,101028.28
2022-08-20T19:54:42.555Z,101030.44
2022-08-20T19:56:44.196Z,101031.84
2022-08-20T19:58:46.191Z,101032.84
2022-08-20T20:00:51.303Z,101027.16
2022-08-20T20:02:54.909Z,101025.44
2022-08-20T20:04:58.121Z,101024.88
2022-08-20T20:06:59.826Z,101032.41
2022-08-20T20:09:04.360Z,101034.75
2022-08-20T20:11:06.537Z,101021.66
2022-08-20T20:13:09.437Z,101021.22
2022-08-20T20:15:13.727Z,101017.53
2022-08-20T20:17:22.973Z,101028.34
2022-08-20T20:19:27.829Z,101020.50
2022-08-20T20:21:38.398Z,101027.31
2022-08-20T20:23:47.025Z,101027.00
2022-08-20T20:25:55.834Z,101017.34
2022-08-20T20:28:08.079Z,101021.38
2022-08-20T20:30:13.873Z,101026.78
2022-08-20T20:32:19.824Z,101025.09
2022-08-20T20:34:28.229Z,101020.66
2022-08-20T20:36:35.335Z,101021.94
2022-08-20T20:38:38.974Z,101025.22
2022-08-20T20:40:45.700Z,101024.78
2022-08-20T20:42:57.978Z,101023.38
2022-08-20T20:44:59.676Z,101009.78
2022-08-20T20:47:03.379Z,101027.88
2022-08-20T20:49:17.574Z,101035.19
2022-08-20T20:51:24.843Z,101023.81
2022-08-20T20:53:50.866Z,101026.09
2022-08-20T20:55:55.979Z,101023.94
2022-08-20T20:57:58.141Z,101030.19
2022-08-20T21:00:00.166Z,101021.81
2022-08-20T21:02:02.576Z,101026.09
2022-08-20T21:04:04.415Z,101027.94
2022-08-20T21:06:07.166Z,101030.09
2022-08-20T21:08:12.162Z,101028.53
2022-08-20T21:10:15.138Z,101031.25
2022-08-20T21:12:19.115Z,101024.41
2022-08-20T21:14:20.687Z,101026.66
2022-08-20T21:16:22.389Z,101021.25
2022-08-20T21:18:26.423Z,101023.25
2022-08-20T21:20:28.407Z,101026.94
2022-08-20T21:22:29.909Z,101017.97
2022-08-20T21:24:32.939Z,101014.69
2022-08-20T21:26:34.753Z,101009.16
2022-08-20T21:28:36.365Z,101018.69
2022-08-20T21:30:37.964Z,101019.25
2022-08-20T21:32:39.517Z,101017.28
2022-08-20T21:34:41.077Z,101005.16
2022-08-20T21:36:42.795Z,101012.84
2022-08-20T21:38:44.318Z,101014.13
2022-08-20T21:40:47.352Z,101010.44
2022-08-20T21:42:49.298Z,101009.28
2022-08-20T21:44:50.852Z,101006.16
2022-08-20T21:46:53.813Z,101000.16
2022-08-20T21:48:55.438Z,101007.59
2022-08-20T21:50:56.985Z,101010.13
2022-08-20T21:52:59.776Z,101002.72
2022-08-20T21:55:01.750Z,101005.00
2022-08-20T21:57:08.039Z,100997.03
2022-08-20T21:59:10.196Z,100998.31
2022-08-20T22:01:13.961Z,100995.91
2022-08-20T22:03:16.726Z,100989.91
2022-08-20T22:05:21.766Z,100992.22
2022-08-20T22:07:23.509Z,100991.34
2022-08-20T22:09:25.017Z,100992.50
2022-08-20T22:11:27.242Z,100993.22
2022-08-20T22:13:32.267Z,100996.19
2022-08-20T22:15:33.996Z,100974.41
2022-08-20T22:17:35.502Z,100995.63
2022-08-20T22:19:37.065Z,100999.06
2022-08-20T22:21:41.342Z,100993.91
2022-08-20T22:23:42.897Z,100990.94
2022-08-20T22:25:44.653Z,100993.19
2022-08-20T22:27:46.293Z,100989.50
2022-08-20T22:29:49.302Z,100967.78
2022-08-20T22:31:55.981Z,100986.88
2022-08-20T22:33:57.847Z,100969.34
2022-08-20T22:36:00.686Z,100972.47
2022-08-20T22:38:02.681Z,100971.16
2022-08-20T22:40:05.018Z,100969.91
2022-08-20T22:42:07.194Z,100995.53
2022-08-20T22:44:08.768Z,100968.47
2022-08-20T22:46:12.602Z,100990.13
2022-08-20T22:48:17.920Z,100973.31
2022-08-20T22:50:23.340Z,100973.31
2022-08-20T22:52:26.637Z,100999.25
2022-08-20T22:54:28.382Z,100973.47
2022-08-20T22:56:30.124Z,100986.56
2022-08-20T22:58:31.692Z,100979.59
2022-08-20T23:00:34.696Z,100981.03
2022-08-20T23:02:38.663Z,100991.56
2022-08-20T23:04:40.862Z,100993.56
2022-08-20T23:06:42.447Z,100989.28
2022-08-20T23:08:44.562Z,100997.84
2022-08-20T23:10:46.121Z,101004.78
2022-08-20T23:12:53.042Z,100999.81
2022-08-20T23:14:54.562Z,100997.53
2022-08-20T23:17:01.049Z,101001.31
2022-08-20T23:19:03.962Z,100994.00
2022-08-20T23:21:06.217Z,100987.28
2022-08-20T23:23:07.770Z,100991.00
2022-08-20T23:25:14.422Z,100983.88
2022-08-20T23:27:18.460Z,100992.84
2022-08-20T23:29:22.602Z,100989.25
2022-08-20T23:31:27.841Z,100989.59
2022-08-20T23:33:29.415Z,100994.28
2022-08-20T23:35:33.099Z,100987.44
2022-08-20T23:37:38.524Z,100996.09
2022-08-20T23:39:43.052Z,100996.66